sensor_id;sensor_type;location;lat;lon;timestamp;pressure;altitude;pressure_sealevel;temperature;humidity
53635;BME280;39542;-34.932;138.594;2023-03-26T00:00:02;100865.41;;;22.70;55.93
53635;BME280;39542;-34.932;138.594;2023-03-26T00:00:37;100865.72;;;22.68;55.90
53635;BME280;39542;-34.932;138.594;2023-03-26T00:01:13;100866.29;;;22.69;55.94
53635;BME280;39542;-34.932;138.594;2023-03-26T00:01:48;100866.88;;;22.71;55.99
53635;BME280;39542;-34.932;138.594;2023-03-26T00:02:23;100866.08;;;22.74;55.95
53635;BME280;39542;-34.932;138.594;2023-03-26T00:02:57;100865.92;;;22.75;55.92
53635;BME280;39542;-34.932;138.594;2023-03-26T00:03:32;100867.20;;;22.73;56.03
53635;BME280;39542;-34.932;138.594;2023-03-26T00:04:09;100869.15;;;22.71;56.16
53635;BME280;39542;-34.932;138.594;2023-03-26T00:04:44;100867.87;;;22.71;56.21
53635;BME280;39542;-34.932;138.594;2023-03-26T00:05:18;100869.06;;;22.79;56.30
53635;BME280;39542;-34.932;138.594;2023-03-26T00:06:02;100865.75;;;22.78;56.32
53635;BME280;39542;-34.932;138.594;2023-03-26T00:06:38;100864.06;;;22.83;56.34
53635;BME280;39542;-34.932;138.594;2023-03-26T00:07:12;100862.50;;;22.78;56.52
53635;BME280;39542;-34.932;138.594;2023-03-26T00:07:46;100862.33;;;22.77;56.59
53635;BME280;39542;-34.932;138.594;2023-03-26T00:08:22;100861.11;;;22.73;56.64
53635;BME280;39542;-34.932;138.594;2023-03-26T00:08:57;100860.30;;;22.72;56.63
53635;BME280;39542;-34.932;138.594;2023-03-26T00:09:31;100859.29;;;22.74;56.59
53635;BME280;39542;-34.932;138.594;2023-03-26T00:10:06;100857.67;;;22.73;56.65
53635;BME280;39542;-34.932;138.594;2023-03-26T00:10:41;100855.95;;;22.73;56.64
53635;BME280;39542;-34.932;138.594;2023-03-26T00:11:18;100854.18;;;22.75;56.67
53635;BME280;39542;-34.932;138.594;2023-03-26T00:11:53;100853.97;;;22.74;56.65
53635;BME280;39542;-34.932;138.594;2023-03-26T00:12:28;100852.71;;;22.74;56.64
53635;BME280;39542;-34.932;138.594;2023-03-26T00:13:02;100850.37;;;22.77;56.56
53635;BME280;39542;-34.932;138.594;2023-03-26T00:13:37;100847.06;;;22.76;56.63
53635;BME280;39542;-34.932;138.594;2023-03-26T00:14:12;100844.71;;;22.75;56.61
53635;BME280;39542;-34.932;138.594;2023-03-26T00:14:47;100840.36;;;22.72;56.64
53635;BME280;39542;-34.932;138.594;2023-03-26T00:15:23;100838.44;;;22.70;56.69
53635;BME280;39542;-34.932;138.594;2023-03-26T00:15:58;100832.26;;;22.72;56.69
53635;BME280;39542;-34.932;138.594;2023-03-26T00:16:33;100827.95;;;22.76;56.62
53635;BME280;39542;-34.932;138.594;2023-03-26T00:17:07;100825.71;;;22.77;56.57
53635;BME280;39542;-34.932;138.594;2023-03-26T00:17:42;100819.60;;;22.74;56.56
53635;BME280;39542;-34.932;138.594;2023-03-26T00:18:16;100818.31;;;22.74;56.57
53635;BME280;39542;-34.932;138.594;2023-03-26T00:18:51;100818.75;;;22.72;56.60
53635;BME280;39542;-34.932;138.594;2023-03-26T00:19:25;100815.23;;;22.73;56.67
53635;BME280;39542;-34.932;138.594;2023-03-26T00:20:01;100814.42;;;22.76;56.56
53635;BME280;39542;-34.932;138.594;2023-03-26T00:20:35;100820.16;;;22.81;56.38
53635;BME280;39542;-34.932;138.594;2023-03-26T00:21:13;100823.17;;;22.78;56.45
53635;BME280;39542;-34.932;138.594;2023-03-26T00:21:48;100828.94;;;22.77;56.55
53635;BME280;39542;-34.932;138.594;2023-03-26T00:22:23;100830.94;;;22.75;56.53
53635;BME280;39542;-34.932;138.594;2023-03-26T00:22:58;100835.80;;;22.79;56.38
53635;BME280;39542;-34.932;138.594;2023-03-26T00:23:34;100840.20;;;22.83;56.32
53635;BME280;39542;-34.932;138.594;2023-03-26T00:24:10;100841.90;;;22.82;56.25
53635;BME280;39542;-34.932;138.594;2023-03-26T00:24:45;100845.58;;;22.78;56.20
53635;BME280;39542;-34.932;138.594;2023-03-26T00:25:21;100846.01;;;22.75;55.88
53635;BME280;39542;-34.932;138.594;2023-03-26T00:25:55;100848.34;;;22.71;55.56
53635;BME280;39542;-34.932;138.594;2023-03-26T00:26:31;100848.87;;;22.75;55.68
53635;BME280;39542;-34.932;138.594;2023-03-26T00:27:05;100849.67;;;22.80;55.73
53635;BME280;39542;-34.932;138.594;2023-03-26T00:27:40;100853.57;;;22.85;55.73
53635;BME280;39542;-34.932;138.594;2023-03-26T00:28:14;100853.83;;;22.77;55.94
53635;BME280;39542;-34.932;138.594;2023-03-26T00:28:49;100852.71;;;22.73;56.01
53635;BME280;39542;-34.932;138.594;2023-03-26T00:29:24;100855.68;;;22.73;56.03
53635;BME280;39542;-34.932;138.594;2023-03-26T00:29:58;100856.80;;;22.74;55.95
53635;BME280;39542;-34.932;138.594;2023-03-26T00:30:34;100860.75;;;22.76;55.93
53635;BME280;39542;-34.932;138.594;2023-03-26T00:31:10;100861.96;;;22.75;55.93
53635;BME280;39542;-34.932;138.594;2023-03-26T00:31:45;100863.75;;;22.77;55.89
53635;BME280;39542;-34.932;138.594;2023-03-26T00:32:20;100866.70;;;22.77;55.91
53635;BME280;39542;-34.932;138.594;2023-03-26T00:32:55;100867.10;;;22.77;55.86
53635;BME280;39542;-34.932;138.594;2023-03-26T00:33:29;100867.51;;;22.78;55.89
53635;BME280;39542;-34.932;138.594;2023-03-26T00:34:04;100871.67;;;22.79;55.87
53635;BME280;39542;-34.932;138.594;2023-03-26T00:34:39;100874.52;;;22.80;55.85
53635;BME280;39542;-34.932;138.594;2023-03-26T00:35:13;100875.41;;;22.76;55.89
53635;BME280;39542;-34.932;138.594;2023-03-26T00:35:53;100871.79;;;22.74;55.96
53635;BME280;39542;-34.932;138.594;2023-03-26T00:36:28;100874.91;;;22.75;55.90
53635;BME280;39542;-34.932;138.594;2023-03-26T00:37:03;100878.30;;;22.79;55.82
53635;BME280;39542;-34.932;138.594;2023-03-26T00:37:38;100878.15;;;22.79;55.80
53635;BME280;39542;-34.932;138.594;2023-03-26T00:38:13;100881.65;;;22.78;55.80
53635;BME280;39542;-34.932;138.594;2023-03-26T00:38:48;100882.75;;;22.76;55.85
53635;BME280;39542;-34.932;138.594;2023-03-26T00:39:23;100884.44;;;22.75;55.85
53635;BME280;39542;-34.932;138.594;2023-03-26T00:39:58;100885.29;;;22.74;55.88
53635;BME280;39542;-34.932;138.594;2023-03-26T00:40:34;100883.65;;;22.76;55.86
53635;BME280;39542;-34.932;138.594;2023-03-26T00:41:10;100883.53;;;22.77;55.83
53635;BME280;39542;-34.932;138.594;2023-03-26T00:41:45;100883.42;;;22.77;55.82
53635;BME280;39542;-34.932;138.594;2023-03-26T00:42:19;100882.02;;;22.75;55.82
53635;BME280;39542;-34.932;138.594;2023-03-26T00:42:54;100879.92;;;22.75;55.82
53635;BME280;39542;-34.932;138.594;2023-03-26T00:43:28;100878.22;;;22.76;55.84
53635;BME280;39542;-34.932;138.594;2023-03-26T00:44:02;100879.05;;;22.79;55.76
53635;BME280;39542;-34.932;138.594;2023-03-26T00:44:36;100879.14;;;22.77;55.77
53635;BME280;39542;-34.932;138.594;2023-03-26T00:45:11;100879.57;;;22.75;55.83
53635;BME280;39542;-34.932;138.594;2023-03-26T00:45:47;100877.30;;;22.73;55.84
53635;BME280;39542;-34.932;138.594;2023-03-26T00:46:23;100879.50;;;22.74;55.79
53635;BME280;39542;-34.932;138.594;2023-03-26T00:46:57;100878.20;;;22.75;55.80
53635;BME280;39542;-34.932;138.594;2023-03-26T00:47:32;100877.26;;;22.78;55.76
53635;BME280;39542;-34.932;138.594;2023-03-26T00:48:06;100873.98;;;22.78;55.72
53635;BME280;39542;-34.932;138.594;2023-03-26T00:48:41;100872.48;;;22.78;55.73
53635;BME280;39542;-34.932;138.594;2023-03-26T00:49:15;100866.65;;;22.75;55.79
53635;BME280;39542;-34.932;138.594;2023-03-26T00:49:50;100861.03;;;22.72;55.82
53635;BME280;39542;-34.932;138.594;2023-03-26T00:50:25;100858.35;;;22.74;55.80
53635;BME280;39542;-34.932;138.594;2023-03-26T00:51:00;100853.27;;;22.74;55.81
53635;BME280;39542;-34.932;138.594;2023-03-26T00:51:35;100852.98;;;22.76;55.81
53635;BME280;39542;-34.932;138.594;2023-03-26T00:52:10;100849.88;;;22.77;55.77
53635;BME280;39542;-34.932;138.594;2023-03-26T00:52:46;100848.26;;;22.77;55.71
53635;BME280;39542;-34.932;138.594;2023-03-26T00:53:20;100845.85;;;22.77;55.75
53635;BME280;39542;-34.932;138.594;2023-03-26T00:53:56;100845.12;;;22.78;55.71
53635;BME280;39542;-34.932;138.594;2023-03-26T00:54:31;100841.89;;;22.78;55.69
53635;BME280;39542;-34.932;138.594;2023-03-26T00:55:06;100836.55;;;22.78;55.68
53635;BME280;39542;-34.932;138.594;2023-03-26T00:55:40;100831.44;;;22.76;55.73
53635;BME280;39542;-34.932;138.594;2023-03-26T00:56:16;100826.29;;;22.74;55.71
53635;BME280;39542;-34.932;138.594;2023-03-26T00:56:51;100821.01;;;22.76;55.68
53635;BME280;39542;-34.932;138.594;2023-03-26T00:57:25;100814.34;;;22.78;55.65
53635;BME280;39542;-34.932;138.594;2023-03-26T00:58:00;100813.79;;;22.80;55.60
53635;BME280;39542;-34.932;138.594;2023-03-26T00:58:36;100809.41;;;22.78;55.62
53635;BME280;39542;-34.932;138.594;2023-03-26T00:59:10;100809.16;;;22.76;55.68
53635;BME280;39542;-34.932;138.594;2023-03-26T00:59:46;100811.70;;;22.74;55.68
53635;BME280;39542;-34.932;138.594;2023-03-26T01:00:29;100810.91;;;22.75;55.66
53635;BME280;39542;-34.932;138.594;2023-03-26T01:01:07;100810.61;;;22.77;55.63
53635;BME280;39542;-34.932;138.594;2023-03-26T01:01:41;100812.14;;;22.79;55.61
53635;BME280;39542;-34.932;138.594;2023-03-26T01:02:17;100811.47;;;22.81;55.50
53635;BME280;39542;-34.932;138.594;2023-03-26T01:02:52;100811.20;;;22.80;55.57
53635;BME280;39542;-34.932;138.594;2023-03-26T01:03:29;100813.20;;;22.84;55.51
53635;BME280;39542;-34.932;138.594;2023-03-26T01:04:23;100813.51;;;22.83;55.43
53635;BME280;39542;-34.932;138.594;2023-03-26T01:04:59;100810.79;;;22.79;55.61
53635;BME280;39542;-34.932;138.594;2023-03-26T01:05:45;100810.20;;;22.79;55.66
53635;BME280;39542;-34.932;138.594;2023-03-26T01:06:24;100811.42;;;22.77;55.62
53635;BME280;39542;-34.932;138.594;2023-03-26T01:07:02;100807.48;;;22.76;55.55
53635;BME280;39542;-34.932;138.594;2023-03-26T01:07:38;100804.72;;;22.88;55.31
53635;BME280;39542;-34.932;138.594;2023-03-26T01:08:20;100805.30;;;22.88;55.40
53635;BME280;39542;-34.932;138.594;2023-03-26T01:08:56;100805.15;;;22.83;55.46
53635;BME280;39542;-34.932;138.594;2023-03-26T01:09:35;100804.67;;;22.83;55.47
53635;BME280;39542;-34.932;138.594;2023-03-26T01:10:11;100804.53;;;22.79;55.49
53635;BME280;39542;-34.932;138.594;2023-03-26T01:10:46;100804.77;;;22.79;55.52
53635;BME280;39542;-34.932;138.594;2023-03-26T01:11:23;100804.35;;;22.79;55.57
53635;BME280;39542;-34.932;138.594;2023-03-26T01:12:00;100804.36;;;22.82;55.52
53635;BME280;39542;-34.932;138.594;2023-03-26T01:12:35;100804.47;;;22.83;55.47
53635;BME280;39542;-34.932;138.594;2023-03-26T01:13:10;100802.93;;;22.82;55.52
53635;BME280;39542;-34.932;138.594;2023-03-26T01:13:47;100803.78;;;22.81;55.49
53635;BME280;39542;-34.932;138.594;2023-03-26T01:14:24;100805.17;;;22.83;55.51
53635;BME280;39542;-34.932;138.594;2023-03-26T01:15:00;100801.54;;;22.84;55.51
53635;BME280;39542;-34.932;138.594;2023-03-26T01:15:35;100801.46;;;22.84;55.56
53635;BME280;39542;-34.932;138.594;2023-03-26T01:16:19;100800.90;;;22.81;55.61
53635;BME280;39542;-34.932;138.594;2023-03-26T01:16:57;100800.88;;;22.79;55.68
53635;BME280;39542;-34.932;138.594;2023-03-26T01:17:32;100802.06;;;22.82;55.61
53635;BME280;39542;-34.932;138.594;2023-03-26T01:18:07;100803.97;;;22.85;55.60
53635;BME280;39542;-34.932;138.594;2023-03-26T01:18:41;100802.66;;;22.85;55.59
53635;BME280;39542;-34.932;138.594;2023-03-26T01:19:21;100800.59;;;22.82;55.60
53635;BME280;39542;-34.932;138.594;2023-03-26T01:20:01;100797.32;;;22.81;55.61
53635;BME280;39542;-34.932;138.594;2023-03-26T01:20:42;100796.78;;;22.79;55.68
53635;BME280;39542;-34.932;138.594;2023-03-26T01:21:22;100795.27;;;22.81;55.62
53635;BME280;39542;-34.932;138.594;2023-03-26T01:21:57;100792.08;;;22.85;55.52
53635;BME280;39542;-34.932;138.594;2023-03-26T01:22:32;100789.46;;;22.84;55.53
53635;BME280;39542;-34.932;138.594;2023-03-26T01:23:08;100786.90;;;22.82;55.63
53635;BME280;39542;-34.932;138.594;2023-03-26T01:23:46;100784.35;;;22.82;55.59
53635;BME280;39542;-34.932;138.594;2023-03-26T01:24:20;100782.25;;;22.81;55.62
53635;BME280;39542;-34.932;138.594;2023-03-26T01:24:55;100778.90;;;22.82;55.61
53635;BME280;39542;-34.932;138.594;2023-03-26T01:25:33;100774.21;;;22.83;55.59
53635;BME280;39542;-34.932;138.594;2023-03-26T01:26:19;100771.93;;;22.84;55.58
53635;BME280;39542;-34.932;138.594;2023-03-26T01:27:21;100766.34;;;22.83;55.58
53635;BME280;39542;-34.932;138.594;2023-03-26T01:27:58;100756.46;;;22.88;55.53
53635;BME280;39542;-34.932;138.594;2023-03-26T01:28:33;100750.36;;;22.87;55.51
53635;BME280;39542;-34.932;138.594;2023-03-26T01:29:13;100745.83;;;22.87;55.50
53635;BME280;39542;-34.932;138.594;2023-03-26T01:29:54;100737.21;;;22.82;55.61
53635;BME280;39542;-34.932;138.594;2023-03-26T01:30:36;100731.84;;;22.82;55.62
53635;BME280;39542;-34.932;138.594;2023-03-26T01:31:16;100729.41;;;22.83;55.62
53635;BME280;39542;-34.932;138.594;2023-03-26T01:32:00;100727.30;;;22.86;55.55
53635;BME280;39542;-34.932;138.594;2023-03-26T01:32:47;100723.05;;;22.87;55.62
53635;BME280;39542;-34.932;138.594;2023-03-26T01:33:29;100722.71;;;22.87;55.62
53635;BME280;39542;-34.932;138.594;2023-03-26T01:34:13;100723.44;;;22.82;55.72
53635;BME280;39542;-34.932;138.594;2023-03-26T01:35:01;100728.06;;;22.90;55.57
53635;BME280;39542;-34.932;138.594;2023-03-26T01:35:44;100729.81;;;22.86;55.60
53635;BME280;39542;-34.932;138.594;2023-03-26T01:36:24;100729.89;;;22.87;55.58
53635;BME280;39542;-34.932;138.594;2023-03-26T01:37:11;100730.52;;;22.83;55.66
53635;BME280;39542;-34.932;138.594;2023-03-26T01:37:59;100731.12;;;22.85;55.67
53635;BME280;39542;-34.932;138.594;2023-03-26T01:38:39;100732.12;;;22.86;55.65
53635;BME280;39542;-34.932;138.594;2023-03-26T01:39:22;100732.97;;;22.86;55.69
53635;BME280;39542;-34.932;138.594;2023-03-26T01:39:58;100731.21;;;22.88;55.65
53635;BME280;39542;-34.932;138.594;2023-03-26T01:40:40;100730.75;;;22.90;55.62
53635;BME280;39542;-34.932;138.594;2023-03-26T01:41:19;100728.54;;;22.84;55.70
53635;BME280;39542;-34.932;138.594;2023-03-26T01:42:01;100726.61;;;22.88;55.62
53635;BME280;39542;-34.932;138.594;2023-03-26T01:42:40;100725.64;;;22.90;55.69
53635;BME280;39542;-34.932;138.594;2023-03-26T01:43:25;100724.81;;;22.87;55.69
53635;BME280;39542;-34.932;138.594;2023-03-26T01:44:08;100724.88;;;22.93;55.72
53635;BME280;39542;-34.932;138.594;2023-03-26T01:44:48;100724.50;;;22.94;55.74
53635;BME280;39542;-34.932;138.594;2023-03-26T01:45:29;100723.89;;;22.95;55.74
53635;BME280;39542;-34.932;138.594;2023-03-26T01:46:08;100723.18;;;22.96;55.72
53635;BME280;39542;-34.932;138.594;2023-03-26T01:46:45;100723.19;;;22.92;55.74
53635;BME280;39542;-34.932;138.594;2023-03-26T01:47:22;100725.30;;;22.90;55.77
53635;BME280;39542;-34.932;138.594;2023-03-26T01:47:58;100728.53;;;22.90;55.95
53635;BME280;39542;-34.932;138.594;2023-03-26T01:48:36;100727.55;;;22.93;55.88
53635;BME280;39542;-34.932;138.594;2023-03-26T01:49:11;100728.51;;;22.95;55.88
53635;BME280;39542;-34.932;138.594;2023-03-26T01:49:45;100728.62;;;22.93;55.81
53635;BME280;39542;-34.932;138.594;2023-03-26T01:50:19;100730.62;;;22.93;55.81
53635;BME280;39542;-34.932;138.594;2023-03-26T01:50:54;100731.21;;;22.90;55.84
53635;BME280;39542;-34.932;138.594;2023-03-26T01:51:31;100729.09;;;22.90;55.84
53635;BME280;39542;-34.932;138.594;2023-03-26T01:52:15;100732.67;;;22.95;55.77
53635;BME280;39542;-34.932;138.594;2023-03-26T01:52:50;100733.18;;;22.98;55.73
53635;BME280;39542;-34.932;138.594;2023-03-26T01:53:25;100733.86;;;22.98;55.73
53635;BME280;39542;-34.932;138.594;2023-03-26T01:54:02;100734.51;;;22.98;55.72
53635;BME280;39542;-34.932;138.594;2023-03-26T01:54:38;100734.59;;;22.96;55.76
53635;BME280;39542;-34.932;138.594;2023-03-26T01:55:12;100735.50;;;22.94;55.77
53635;BME280;39542;-34.932;138.594;2023-03-26T01:55:54;100735.17;;;22.94;55.83
53635;BME280;39542;-34.932;138.594;2023-03-26T01:56:36;100736.41;;;22.93;55.77
53635;BME280;39542;-34.932;138.594;2023-03-26T01:57:19;100737.80;;;22.88;55.92
53635;BME280;39542;-34.932;138.594;2023-03-26T01:58:02;100738.34;;;22.90;55.77
53635;BME280;39542;-34.932;138.594;2023-03-26T01:58:43;100742.67;;;22.90;55.81
53635;BME280;39542;-34.932;138.594;2023-03-26T01:59:34;100742.31;;;22.90;55.80
53635;BME280;39542;-34.932;138.594;2023-03-26T02:00:19;100741.34;;;22.88;55.79
53635;BME280;39542;-34.932;138.594;2023-03-26T02:00:59;100738.87;;;22.88;55.81
53635;BME280;39542;-34.932;138.594;2023-03-26T02:01:43;100736.00;;;22.91;55.76
53635;BME280;39542;-34.932;138.594;2023-03-26T02:02:25;100732.58;;;22.90;55.79
53635;BME280;39542;-34.932;138.594;2023-03-26T02:03:18;100728.29;;;22.88;55.83
53635;BME280;39542;-34.932;138.594;2023-03-26T02:04:00;100724.13;;;22.89;55.77
53635;BME280;39542;-34.932;138.594;2023-03-26T02:04:45;100717.03;;;22.89;55.76
53635;BME280;39542;-34.932;138.594;2023-03-26T02:05:28;100711.27;;;22.89;55.76
53635;BME280;39542;-34.932;138.594;2023-03-26T02:06:08;100705.10;;;22.93;55.70
53635;BME280;39542;-34.932;138.594;2023-03-26T02:06:46;100699.90;;;22.99;55.52
53635;BME280;39542;-34.932;138.594;2023-03-26T02:07:26;100692.78;;;22.96;55.58
53635;BME280;39542;-34.932;138.594;2023-03-26T02:08:09;100685.54;;;22.91;55.68
53635;BME280;39542;-34.932;138.594;2023-03-26T02:08:48;100677.92;;;22.91;55.65
53635;BME280;39542;-34.932;138.594;2023-03-26T02:09:27;100672.12;;;22.97;55.65
53635;BME280;39542;-34.932;138.594;2023-03-26T02:10:08;100668.75;;;22.96;55.67
53635;BME280;39542;-34.932;138.594;2023-03-26T02:10:47;100664.71;;;22.92;55.81
53635;BME280;39542;-34.932;138.594;2023-03-26T02:11:24;100668.82;;;22.91;55.77
53635;BME280;39542;-34.932;138.594;2023-03-26T02:11:59;100674.20;;;22.94;55.76
53635;BME280;39542;-34.932;138.594;2023-03-26T02:12:36;100681.74;;;22.93;55.78
53635;BME280;39542;-34.932;138.594;2023-03-26T02:13:11;100687.33;;;22.92;55.82
53635;BME280;39542;-34.932;138.594;2023-03-26T02:13:46;100692.77;;;22.91;55.88
53635;BME280;39542;-34.932;138.594;2023-03-26T02:14:21;100698.79;;;22.92;55.82
53635;BME280;39542;-34.932;138.594;2023-03-26T02:14:58;100702.15;;;22.93;55.81
53635;BME280;39542;-34.932;138.594;2023-03-26T02:15:33;100705.70;;;22.95;55.74
53635;BME280;39542;-34.932;138.594;2023-03-26T02:16:09;100705.71;;;22.98;55.74
53635;BME280;39542;-34.932;138.594;2023-03-26T02:16:44;100705.23;;;22.94;55.84
53635;BME280;39542;-34.932;138.594;2023-03-26T02:17:19;100706.01;;;22.93;55.81
53635;BME280;39542;-34.932;138.594;2023-03-26T02:17:53;100704.73;;;22.92;55.90
53635;BME280;39542;-34.932;138.594;2023-03-26T02:18:29;100707.45;;;22.88;56.10
53635;BME280;39542;-34.932;138.594;2023-03-26T02:19:04;100706.79;;;22.88;56.02
53635;BME280;39542;-34.932;138.594;2023-03-26T02:19:39;100705.86;;;22.91;55.93
53635;BME280;39542;-34.932;138.594;2023-03-26T02:20:18;100706.10;;;22.89;55.87
53635;BME280;39542;-34.932;138.594;2023-03-26T02:20:53;100704.93;;;22.86;56.05
53635;BME280;39542;-34.932;138.594;2023-03-26T02:21:28;100705.50;;;22.85;56.08
53635;BME280;39542;-34.932;138.594;2023-03-26T02:22:03;100705.40;;;22.82;56.07
53635;BME280;39542;-34.932;138.594;2023-03-26T02:22:37;100706.81;;;22.84;55.95
53635;BME280;39542;-34.932;138.594;2023-03-26T02:23:12;100706.81;;;22.85;55.89
53635;BME280;39542;-34.932;138.594;2023-03-26T02:23:51;100706.45;;;22.85;55.77
53635;BME280;39542;-34.932;138.594;2023-03-26T02:24:26;100705.17;;;22.84;55.69
53635;BME280;39542;-34.932;138.594;2023-03-26T02:25:01;100704.18;;;22.83;55.75
53635;BME280;39542;-34.932;138.594;2023-03-26T02:25:35;100704.89;;;22.87;55.75
53635;BME280;39542;-34.932;138.594;2023-03-26T02:26:11;100705.57;;;22.90;55.83
53635;BME280;39542;-34.932;138.594;2023-03-26T02:26:48;100707.92;;;22.91;55.86
53635;BME280;39542;-34.932;138.594;2023-03-26T02:27:23;100708.76;;;22.91;55.87
53635;BME280;39542;-34.932;138.594;2023-03-26T02:27:57;100710.32;;;22.95;55.80
53635;BME280;39542;-34.932;138.594;2023-03-26T02:28:33;100708.44;;;22.91;55.84
53635;BME280;39542;-34.932;138.594;2023-03-26T02:29:09;100706.63;;;22.92;55.91
53635;BME280;39542;-34.932;138.594;2023-03-26T02:29:44;100709.53;;;22.92;55.91
53635;BME280;39542;-34.932;138.594;2023-03-26T02:30:24;100710.13;;;22.94;55.91
53635;BME280;39542;-34.932;138.594;2023-03-26T02:30:59;100711.70;;;22.98;55.92
53635;BME280;39542;-34.932;138.594;2023-03-26T02:31:34;100713.66;;;22.94;56.08
53635;BME280;39542;-34.932;138.594;2023-03-26T02:32:11;100714.53;;;22.90;56.22
53635;BME280;39542;-34.932;138.594;2023-03-26T02:32:46;100717.20;;;22.91;56.05
53635;BME280;39542;-34.932;138.594;2023-03-26T02:33:22;100718.57;;;22.94;56.00
53635;BME280;39542;-34.932;138.594;2023-03-26T02:34:02;100717.25;;;22.94;55.95
53635;BME280;39542;-34.932;138.594;2023-03-26T02:34:37;100723.08;;;22.95;55.99
53635;BME280;39542;-34.932;138.594;2023-03-26T02:35:12;100723.79;;;22.93;55.97
53635;BME280;39542;-34.932;138.594;2023-03-26T02:36:32;100724.08;;;22.91;56.04
53635;BME280;39542;-34.932;138.594;2023-03-26T02:37:06;100722.97;;;22.93;56.07
53635;BME280;39542;-34.932;138.594;2023-03-26T02:37:46;100723.00;;;22.93;56.11
53635;BME280;39542;-34.932;138.594;2023-03-26T02:38:21;100721.55;;;22.91;56.20
53635;BME280;39542;-34.932;138.594;2023-03-26T02:38:57;100720.05;;;22.89;56.26
53635;BME280;39542;-34.932;138.594;2023-03-26T02:39:33;100716.95;;;22.90;56.31
53635;BME280;39542;-34.932;138.594;2023-03-26T02:40:11;100713.95;;;22.93;56.15
53635;BME280;39542;-34.932;138.594;2023-03-26T02:40:45;100714.07;;;22.93;56.01
53635;BME280;39542;-34.932;138.594;2023-03-26T02:41:21;100713.42;;;22.93;56.12
53635;BME280;39542;-34.932;138.594;2023-03-26T02:41:55;100711.44;;;22.92;55.98
53635;BME280;39542;-34.932;138.594;2023-03-26T02:42:33;100710.19;;;22.91;56.12
53635;BME280;39542;-34.932;138.594;2023-03-26T02:43:07;100709.00;;;22.91;56.09
53635;BME280;39542;-34.932;138.594;2023-03-26T02:43:43;100704.65;;;22.91;56.22
53635;BME280;39542;-34.932;138.594;2023-03-26T02:44:17;100704.10;;;22.92;56.20
53635;BME280;39542;-34.932;138.594;2023-03-26T02:44:52;100702.35;;;22.92;56.19
53635;BME280;39542;-34.932;138.594;2023-03-26T02:45:26;100695.65;;;22.93;56.22
53635;BME280;39542;-34.932;138.594;2023-03-26T02:46:01;100693.06;;;22.92;56.26
53635;BME280;39542;-34.932;138.594;2023-03-26T02:46:35;100693.72;;;22.93;56.27
53635;BME280;39542;-34.932;138.594;2023-03-26T02:47:09;100691.85;;;22.94;56.25
53635;BME280;39542;-34.932;138.594;2023-03-26T02:47:43;100689.98;;;22.93;56.27
53635;BME280;39542;-34.932;138.594;2023-03-26T02:48:18;100689.35;;;22.93;56.25
53635;BME280;39542;-34.932;138.594;2023-03-26T02:48:53;100686.54;;;22.90;56.33
53635;BME280;39542;-34.932;138.594;2023-03-26T02:49:28;100683.91;;;22.89;56.34
53635;BME280;39542;-34.932;138.594;2023-03-26T02:50:03;100682.52;;;22.91;56.35
53635;BME280;39542;-34.932;138.594;2023-03-26T02:50:37;100677.54;;;22.94;56.25
53635;BME280;39542;-34.932;138.594;2023-03-26T02:51:11;100672.83;;;22.94;56.29
53635;BME280;39542;-34.932;138.594;2023-03-26T02:51:46;100670.30;;;22.94;56.23
53635;BME280;39542;-34.932;138.594;2023-03-26T02:52:20;100665.86;;;22.92;56.05
53635;BME280;39542;-34.932;138.594;2023-03-26T02:52:55;100662.99;;;22.90;56.06
53635;BME280;39542;-34.932;138.594;2023-03-26T02:53:29;100662.01;;;22.91;55.92
53635;BME280;39542;-34.932;138.594;2023-03-26T02:54:05;100660.96;;;22.91;55.82
53635;BME280;39542;-34.932;138.594;2023-03-26T02:54:40;100661.37;;;22.91;55.84
53635;BME280;39542;-34.932;138.594;2023-03-26T02:55:14;100659.38;;;22.91;55.82
53635;BME280;39542;-34.932;138.594;2023-03-26T02:55:49;100658.94;;;22.90;55.89
53635;BME280;39542;-34.932;138.594;2023-03-26T02:56:24;100659.05;;;22.90;55.81
53635;BME280;39542;-34.932;138.594;2023-03-26T02:56:58;100657.75;;;22.92;55.72
53635;BME280;39542;-34.932;138.594;2023-03-26T02:57:33;100658.54;;;22.91;55.78
53635;BME280;39542;-34.932;138.594;2023-03-26T02:58:07;100657.83;;;22.90;55.78
53635;BME280;39542;-34.932;138.594;2023-03-26T02:58:42;100657.34;;;22.89;55.74
53635;BME280;39542;-34.932;138.594;2023-03-26T02:59:17;100659.57;;;22.87;55.57
53635;BME280;39542;-34.932;138.594;2023-03-26T02:59:52;100660.56;;;22.89;55.61
53635;BME280;39542;-34.932;138.594;2023-03-26T03:00:26;100661.58;;;22.90;55.42
53635;BME280;39542;-34.932;138.594;2023-03-26T03:01:01;100667.57;;;22.91;55.44
53635;BME280;39542;-34.932;138.594;2023-03-26T03:01:35;100668.45;;;22.91;55.58
53635;BME280;39542;-34.932;138.594;2023-03-26T03:02:09;100668.75;;;22.90;55.72
53635;BME280;39542;-34.932;138.594;2023-03-26T03:02:44;100670.21;;;22.89;55.88
53635;BME280;39542;-34.932;138.594;2023-03-26T03:03:19;100669.67;;;22.88;56.04
53635;BME280;39542;-34.932;138.594;2023-03-26T03:03:53;100670.59;;;22.89;56.14
53635;BME280;39542;-34.932;138.594;2023-03-26T03:04:28;100667.92;;;22.91;56.04
53635;BME280;39542;-34.932;138.594;2023-03-26T03:05:02;100668.34;;;22.91;56.31
53635;BME280;39542;-34.932;138.594;2023-03-26T03:05:37;100665.71;;;22.91;56.40